Time;durP1;ratioP1;P1;durP2;ratioP2;P2;SDS_P1;SDS_P2;PMS_P1;PMS_P2;Temp;Humidity;BMP_temperature;BMP_pressure;BME280_temperature;BME280_humidity;BME280_pressure;Samples;Min_cycle;Max_cycle;Signal;HPM_P1;HPM_P2
2021/09/20 00:00:04;;;;;;;7.65;4.70;;;;;;;13.27;100.00;95842.53;5016480;28;24845;-78
2021/09/20 00:02:32;;;;;;;4.38;3.70;;;;;;;13.49;100.00;95840.03;5015948;28;24482;-78
2021/09/20 00:04:59;;;;;;;4.90;4.50;;;;;;;13.60;100.00;95841.84;5015278;28;24441;-77
2021/09/20 00:07:25;;;;;;;5.00;4.40;;;;;;;13.24;100.00;95840.19;5013300;28;24444;-76
2021/09/20 00:09:52;;;;;;;5.80;4.57;;;;;;;13.30;100.00;95839.72;5014644;28;24439;-77
2021/09/20 00:12:18;;;;;;;5.43;4.68;;;;;;;13.00;100.00;95843.53;5016237;28;24416;-78
2021/09/20 00:14:45;;;;;;;5.22;4.63;;;;;;;12.90;100.00;95852.91;5014055;28;24433;-78
2021/09/20 00:17:11;;;;;;;4.82;4.03;;;;;;;12.78;100.00;95852.03;5015957;28;24452;-77
2021/09/20 00:19:39;;;;;;;4.97;4.23;;;;;;;12.77;100.00;95863.38;5015115;28;24428;-77
2021/09/20 00:22:06;;;;;;;5.30;4.25;;;;;;;12.79;100.00;95863.25;5014724;28;24436;-78
2021/09/20 00:24:32;;;;;;;4.55;4.15;;;;;;;13.21;100.00;95858.56;5015715;28;24432;-77
2021/09/20 00:26:58;;;;;;;5.73;4.40;;;;;;;13.26;100.00;95856.47;5015704;28;24807;-78
2021/09/20 00:29:25;;;;;;;4.30;3.80;;;;;;;13.20;100.00;95862.09;5014220;28;24489;-76
2021/09/20 00:31:51;;;;;;;5.22;4.10;;;;;;;13.08;100.00;95858.59;5013343;28;24459;-76
2021/09/20 00:34:18;;;;;;;5.15;4.65;;;;;;;12.95;100.00;95858.66;5013023;28;24958;-77
2021/09/20 00:36:45;;;;;;;7.32;4.32;;;;;;;12.98;100.00;95860.22;5014191;28;24950;-78
2021/09/20 00:39:12;;;;;;;5.00;4.43;;;;;;;12.98;100.00;95865.41;5014777;28;24419;-76
2021/09/20 00:41:38;;;;;;;5.03;4.53;;;;;;;13.05;100.00;95869.22;5014896;28;24425;-76
2021/09/20 00:44:05;;;;;;;5.40;4.50;;;;;;;12.97;100.00;95861.94;5013000;28;24447;-77
2021/09/20 00:46:31;;;;;;;6.38;4.93;;;;;;;12.88;100.00;95865.22;5014139;28;24520;-78
2021/09/20 00:48:58;;;;;;;5.73;4.97;;;;;;;13.04;100.00;95864.94;5013414;28;24455;-77
2021/09/20 00:51:24;;;;;;;5.15;4.60;;;;;;;13.07;100.00;95860.38;5013050;28;24432;-76
2021/09/20 00:53:52;;;;;;;5.65;4.25;;;;;;;13.20;100.00;95860.34;5013823;28;24423;-77
2021/09/20 00:56:19;;;;;;;6.45;4.25;;;;;;;13.35;100.00;95857.56;5013722;28;24436;-77
2021/09/20 00:58:46;;;;;;;6.23;4.77;;;;;;;13.18;100.00;95859.59;5014511;28;24463;-79
2021/09/20 01:01:12;;;;;;;4.95;4.50;;;;;;;13.01;100.00;95862.56;5014961;28;24428;-77
2021/09/20 01:03:40;;;;;;;5.75;5.05;;;;;;;12.78;100.00;95861.59;5015101;28;24420;-78
2021/09/20 01:06:07;;;;;;;5.03;4.38;;;;;;;12.74;100.00;95863.56;5012341;28;24436;-78
2021/09/20 01:08:33;;;;;;;5.13;4.63;;;;;;;12.72;100.00;95867.22;5012437;28;24448;-76
2021/09/20 01:11:01;;;;;;;5.53;5.03;;;;;;;12.75;100.00;95870.44;5012487;28;24482;-76
2021/09/20 01:13:28;;;;;;;5.43;4.63;;;;;;;12.68;100.00;95869.22;5012821;28;24479;-76
2021/09/20 01:15:55;;;;;;;7.03;4.75;;;;;;;12.66;100.00;95876.28;5011981;28;25004;-77
2021/09/20 01:18:21;;;;;;;6.07;4.77;;;;;;;12.72;100.00;95875.00;5012169;28;24478;-77
2021/09/20 01:20:48;;;;;;;4.95;4.55;;;;;;;13.03;100.00;95876.31;5012315;28;24778;-76
2021/09/20 01:23:16;;;;;;;5.20;4.68;;;;;;;12.89;100.00;95873.84;5012315;28;24428;-77
2021/09/20 01:25:42;;;;;;;6.10;4.97;;;;;;;12.75;100.00;95878.22;5012086;28;24425;-76
2021/09/20 01:28:09;;;;;;;5.40;4.90;;;;;;;12.70;100.00;95869.94;5012001;28;24459;-77
2021/09/20 01:30:36;;;;;;;19.02;4.35;;;;;;;12.80;100.00;95870.13;5012167;28;24428;-76
2021/09/20 01:33:02;;;;;;;5.53;4.72;;;;;;;12.75;100.00;95870.44;5011782;28;24946;-77
2021/09/20 01:35:29;;;;;;;5.37;4.47;;;;;;;12.74;100.00;95876.56;5011719;28;24521;-76
2021/09/20 01:37:56;;;;;;;5.80;4.70;;;;;;;12.97;100.00;95874.13;5011946;28;24429;-77
2021/09/20 01:40:24;;;;;;;4.57;4.18;;;;;;;12.98;100.00;95878.41;5010648;28;24440;-77
2021/09/20 01:42:51;;;;;;;6.95;4.28;;;;;;;12.96;100.00;95875.91;5011070;28;24445;-79
2021/09/20 01:45:17;;;;;;;4.80;4.37;;;;;;;12.78;100.00;95872.00;5012149;28;24513;-78
2021/09/20 01:47:44;;;;;;;5.30;4.80;;;;;;;12.68;100.00;95871.81;5012075;28;24452;-77
2021/09/20 01:50:14;;;;;;;5.32;4.82;;;;;;;12.63;100.00;95871.28;5012449;28;24439;-79
2021/09/20 01:52:41;;;;;;;5.65;4.85;;;;;;;12.90;100.00;95870.28;5010162;28;24833;-78
2021/09/20 01:55:09;;;;;;;5.93;5.32;;;;;;;13.10;100.00;95874.09;5012382;28;24838;-79
2021/09/20 01:57:37;;;;;;;5.25;4.75;;;;;;;13.00;100.00;95879.13;5012652;28;24479;-79
2021/09/20 02:00:05;;;;;;;5.18;4.68;;;;;;;12.90;100.00;95871.13;5012205;28;24440;-78
2021/09/20 02:02:31;;;;;;;5.97;5.05;;;;;;;12.77;100.00;95867.72;5012495;28;24429;-78
2021/09/20 02:04:58;;;;;;;8.05;5.35;;;;;;;12.79;100.00;95871.91;5012088;28;24444;-79
2021/09/20 02:07:24;;;;;;;6.22;4.85;;;;;;;12.94;100.00;95875.19;5012337;28;24506;-77
2021/09/20 02:09:51;;;;;;;5.00;4.35;;;;;;;13.18;100.00;95874.38;5012421;28;24487;-79
2021/09/20 02:12:17;;;;;;;6.80;4.75;;;;;;;13.33;100.00;95868.09;5012518;28;24988;-79
2021/09/20 02:14:45;;;;;;;5.93;5.32;;;;;;;13.05;100.00;95871.81;5010846;28;24838;-76
2021/09/20 02:17:12;;;;;;;5.55;4.78;;;;;;;12.93;100.00;95876.09;5010156;28;24447;-76
2021/09/20 02:19:39;;;;;;;5.43;4.93;;;;;;;12.72;100.00;95870.66;5010020;28;24436;-77
2021/09/20 02:22:05;;;;;;;9.93;5.00;;;;;;;12.59;100.00;95872.44;5009694;28;24982;-77
2021/09/20 02:24:32;;;;;;;5.47;4.97;;;;;;;12.57;100.00;95874.31;5009882;28;24447;-77
2021/09/20 02:26:59;;;;;;;6.10;5.50;;;;;;;12.55;100.00;95873.59;5009963;28;24440;-77
2021/09/20 02:29:25;;;;;;;5.78;5.28;;;;;;;12.62;100.00;95874.84;5009504;28;24543;-77
2021/09/20 02:31:53;;;;;;;5.82;5.32;;;;;;;12.67;100.00;95877.09;5009641;28;25270;-77
2021/09/20 02:34:20;;;;;;;6.10;5.60;;;;;;;12.73;100.00;95869.72;5007286;28;25036;-77
2021/09/20 02:36:47;;;;;;;6.82;5.97;;;;;;;12.69;100.00;95864.84;5011898;28;25143;-78
2021/09/20 02:39:13;;;;;;;6.00;5.40;;;;;;;12.78;100.00;95866.78;5013477;28;24850;-78
2021/09/20 02:41:40;;;;;;;6.57;5.85;;;;;;;12.85;100.00;95865.44;5013416;28;24470;-77
2021/09/20 02:44:07;;;;;;;7.93;6.05;;;;;;;12.69;100.00;95865.69;5013585;28;24435;-78
2021/09/20 02:46:33;;;;;;;6.40;5.90;;;;;;;12.60;100.00;95861.09;5013033;28;24479;-79
2021/09/20 02:49:01;;;;;;;8.60;5.65;;;;;;;12.56;100.00;95860.47;5013092;28;25039;-78
2021/09/20 02:51:28;;;;;;;7.35;6.00;;;;;;;12.59;100.00;95856.84;5013035;28;24996;-77
2021/09/20 02:53:54;;;;;;;6.50;5.90;;;;;;;12.56;100.00;95864.84;5012654;28;24981;-77
2021/09/20 02:56:20;;;;;;;6.90;5.80;;;;;;;12.49;100.00;95864.44;5010687;28;24431;-77
2021/09/20 02:58:47;;;;;;;6.45;5.40;;;;;;;12.58;100.00;95865.59;5051354;22;24460;-77
2021/09/20 03:01:13;;;;;;;6.10;5.50;;;;;;;12.61;100.00;95875.78;5011544;28;24454;-77
2021/09/20 03:03:40;;;;;;;5.97;5.40;;;;;;;12.47;100.00;95870.69;5011484;28;24424;-77
2021/09/20 03:06:08;;;;;;;6.10;5.47;;;;;;;12.35;100.00;95877.56;5011020;28;24964;-76
2021/09/20 03:08:34;;;;;;;8.00;5.78;;;;;;;12.15;100.00;95878.88;5011064;28;24890;-77
2021/09/20 03:11:01;;;;;;;6.15;5.53;;;;;;;12.11;100.00;95875.66;5011205;28;24992;-77
2021/09/20 03:13:27;;;;;;;6.05;5.22;;;;;;;12.19;100.00;95872.56;5012882;28;24432;-77
2021/09/20 03:15:54;;;;;;;7.40;6.00;;;;;;;12.26;100.00;95876.41;5014992;28;24432;-77
2021/09/20 03:18:20;;;;;;;6.25;5.65;;;;;;;12.28;100.00;95884.94;5015401;28;24427;-76
2021/09/20 03:20:47;;;;;;;6.25;5.65;;;;;;;12.23;100.00;95876.59;5015513;28;24436;-77
2021/09/20 03:23:14;;;;;;;8.67;6.30;;;;;;;12.03;100.00;95872.75;5015545;28;24420;-77
2021/09/20 03:25:41;;;;;;;7.03;6.28;;;;;;;12.01;100.00;95877.22;5015045;28;24424;-77
2021/09/20 03:28:07;;;;;;;7.33;5.80;;;;;;;11.97;100.00;95877.53;5015149;28;24865;-77
2021/09/20 03:30:34;;;;;;;6.80;5.50;;;;;;;11.88;100.00;95875.56;5015187;28;24437;-77
2021/09/20 03:33:00;;;;;;;6.05;4.88;;;;;;;11.95;100.00;95876.81;5014749;28;24427;-77
2021/09/20 03:35:27;;;;;;;8.20;6.35;;;;;;;11.99;100.00;95878.28;5014677;28;24428;-77
2021/09/20 03:37:53;;;;;;;6.88;5.93;;;;;;;12.09;100.00;95874.13;5014381;28;24420;-77
2021/09/20 03:40:21;;;;;;;5.75;5.25;;;;;;;12.19;100.00;95876.91;5014675;28;24432;-77
2021/09/20 03:42:48;;;;;;;7.55;6.43;;;;;;;12.20;100.00;95875.97;5014168;28;24432;-77
2021/09/20 03:45:15;;;;;;;7.07;5.32;;;;;;;12.40;100.00;95883.25;5013987;28;24431;-77
2021/09/20 03:47:42;;;;;;;6.35;5.75;;;;;;;12.52;100.00;95881.59;5013973;28;24435;-77
2021/09/20 03:50:11;;;;;;;5.55;4.90;;;;;;;12.53;100.00;95889.28;5014164;28;24514;-77
2021/09/20 03:52:37;;;;;;;6.28;5.65;;;;;;;12.59;100.00;95888.84;5013791;28;24463;-77
2021/09/20 03:55:05;;;;;;;6.38;5.72;;;;;;;12.48;100.00;95890.53;5013886;28;24787;-77
2021/09/20 03:57:32;;;;;;;8.70;5.70;;;;;;;12.44;100.00;95891.69;5013827;28;24427;-77
2021/09/20 03:59:59;;;;;;;7.40;6.45;;;;;;;12.38;100.00;95885.13;5014345;28;24419;-77
2021/09/20 04:02:25;;;;;;;7.40;6.05;;;;;;;12.37;100.00;95882.63;5014013;28;24425;-77
2021/09/20 04:04:52;;;;;;;13.15;6.63;;;;;;;12.36;100.00;95892.19;5013485;28;24478;-77
2021/09/20 04:07:18;;;;;;;25.05;6.50;;;;;;;12.30;100.00;95888.25;5013719;28;24420;-77
2021/09/20 04:09:45;;;;;;;16.73;5.80;;;;;;;12.30;100.00;95892.59;5013892;28;24455;-78
2021/09/20 04:12:12;;;;;;;14.05;5.55;;;;;;;12.31;100.00;95887.31;5013732;28;24432;-78
2021/09/20 04:14:40;;;;;;;18.30;6.00;;;;;;;12.28;100.00;95884.94;5008112;28;24447;-78
2021/09/20 04:17:07;;;;;;;8.25;6.70;;;;;;;12.28;100.00;95884.09;5013011;28;24424;-76
2021/09/20 04:19:34;;;;;;;6.73;6.17;;;;;;;12.32;100.00;95888.97;5013098;28;24542;-76
2021/09/20 04:22:01;;;;;;;7.22;6.53;;;;;;;12.34;100.00;95888.88;5013550;28;24498;-76
2021/09/20 04:24:28;;;;;;;7.78;6.80;;;;;;;12.30;100.00;95888.25;5013411;28;24424;-74
2021/09/20 04:26:54;;;;;;;7.47;6.68;;;;;;;12.38;100.00;95889.50;5013477;28;24451;-74
2021/09/20 04:29:20;;;;;;;9.40;8.18;;;;;;;12.39;100.00;95892.00;5012936;28;24846;-74
2021/09/20 04:31:48;;;;;;;7.82;7.03;;;;;;;12.44;100.00;95908.09;5012359;28;24435;-75
2021/09/20 04:34:15;;;;;;;8.30;7.30;;;;;;;12.44;100.00;95899.47;5012486;28;24455;-74
2021/09/20 04:36:41;;;;;;;7.97;6.20;;;;;;;12.45;100.00;95901.13;5012360;28;24849;-75
2021/09/20 04:39:07;;;;;;;8.60;6.88;;;;;;;12.46;100.00;95902.78;5012766;28;24478;-75
2021/09/20 04:41:34;;;;;;;8.13;6.90;;;;;;;12.45;100.00;95908.91;5013079;28;24451;-75
2021/09/20 04:44:00;;;;;;;10.23;7.72;;;;;;;12.45;100.00;95909.75;5012573;28;24440;-75
2021/09/20 04:46:27;;;;;;;7.15;6.47;;;;;;;12.48;100.00;95913.91;5012206;28;24962;-75
2021/09/20 04:48:54;;;;;;;9.55;7.28;;;;;;;12.50;100.00;95919.84;5012361;28;24482;-74
2021/09/20 04:51:21;;;;;;;7.97;7.20;;;;;;;12.50;100.00;95910.28;5012669;28;24429;-75
2021/09/20 04:53:47;;;;;;;8.18;7.38;;;;;;;12.54;100.00;95911.72;5012559;28;24427;-74
2021/09/20 04:56:16;;;;;;;9.50;8.70;;;;;;;12.62;100.00;95910.38;5010828;28;24432;-75
2021/09/20 04:58:42;;;;;;;9.23;8.33;;;;;;;12.60;100.00;95919.09;5012289;28;24485;-75
2021/09/20 05:01:09;;;;;;;9.63;8.35;;;;;;;12.50;100.00;95925.88;5012638;28;24782;-76
2021/09/20 05:03:35;;;;;;;9.07;8.13;;;;;;;12.40;100.00;95926.59;5011839;28;24436;-76
2021/09/20 05:06:04;;;;;;;10.52;8.98;;;;;;;12.29;100.00;95925.53;5011358;28;24436;-77
2021/09/20 05:08:32;;;;;;;9.98;8.95;;;;;;;12.31;100.00;95921.09;5011953;28;24449;-76
2021/09/20 05:10:59;;;;;;;9.52;8.50;;;;;;;12.31;100.00;95926.28;5012552;28;24519;-76
2021/09/20 05:13:25;;;;;;;10.27;8.77;;;;;;;12.33;100.00;95927.00;5011627;28;24999;-76
2021/09/20 05:15:52;;;;;;;9.77;8.38;;;;;;;12.35;100.00;95930.34;5011530;28;24424;-75
2021/09/20 05:18:18;;;;;;;7.95;7.15;;;;;;;12.42;100.00;95922.09;5012236;28;24483;-76
2021/09/20 05:20:44;;;;;;;8.27;7.40;;;;;;;12.46;100.00;95931.34;5012000;28;24475;-76
2021/09/20 05:23:12;;;;;;;8.27;7.47;;;;;;;12.47;100.00;95925.25;5012016;28;24877;-76
2021/09/20 05:25:39;;;;;;;7.55;6.53;;;;;;;12.50;100.00;95936.25;5011283;28;24969;-76
2021/09/20 05:28:06;;;;;;;6.75;6.15;;;;;;;12.47;100.00;95930.44;5011784;28;24433;-76
2021/09/20 05:30:32;;;;;;;7.10;6.40;;;;;;;12.45;100.00;95929.69;5011879;28;24451;-76
2021/09/20 05:32:59;;;;;;;6.40;5.80;;;;;;;12.46;100.00;95933.94;5011893;28;24420;-76
2021/09/20 05:35:27;;;;;;;5.43;4.93;;;;;;;12.52;100.00;95936.16;4996067;28;24439;-77
2021/09/20 05:37:53;;;;;;;7.80;6.13;;;;;;;12.47;100.00;95927.84;5011518;28;24833;-76
2021/09/20 05:40:22;;;;;;;7.70;6.88;;;;;;;12.45;100.00;95932.28;5011750;28;24432;-76
2021/09/20 05:42:48;;;;;;;7.97;6.90;;;;;;;12.47;100.00;95933.03;5011205;28;25069;-76
2021/09/20 05:45:15;;;;;;;7.50;6.82;;;;;;;12.47;100.00;95931.25;5011124;28;24957;-76
2021/09/20 05:47:42;;;;;;;8.10;7.05;;;;;;;12.51;100.00;95939.69;5011320;28;24440;-76
2021/09/20 05:50:10;;;;;;;8.90;7.67;;;;;;;12.52;100.00;95941.34;5011319;28;24452;-77
2021/09/20 05:52:37;;;;;;;9.02;8.13;;;;;;;12.53;100.00;95935.19;5011469;28;24455;-76
2021/09/20 05:55:04;;;;;;;10.13;8.82;;;;;;;12.60;100.00;95942.47;5010949;28;24436;-77
2021/09/20 05:57:32;;;;;;;9.70;8.13;;;;;;;12.57;100.00;95941.88;5010791;28;25134;-76
2021/09/20 05:59:59;;;;;;;8.45;7.63;;;;;;;12.54;100.00;95937.72;5011526;28;24474;-76
2021/09/20 06:02:25;;;;;;;8.10;7.35;;;;;;;12.56;100.00;95940.19;5011369;28;24440;-76
2021/09/20 06:04:52;;;;;;;9.17;8.17;;;;;;;12.57;100.00;95947.91;5010907;28;24794;-76
2021/09/20 06:07:19;;;;;;;9.50;8.48;;;;;;;12.58;100.00;95946.97;5011054;28;24815;-76
2021/09/20 06:09:45;;;;;;;10.18;9.27;;;;;;;12.67;100.00;95950.69;5011036;28;25020;-76
2021/09/20 06:12:12;;;;;;;10.75;9.23;;;;;;;12.64;100.00;95950.88;5011259;28;24455;-75
2021/09/20 06:14:40;;;;;;;10.73;9.63;;;;;;;12.59;100.00;95961.59;5009888;28;25185;-75
2021/09/20 06:17:07;;;;;;;10.02;9.13;;;;;;;12.62;100.00;95954.56;5010774;28;24461;-75
2021/09/20 06:19:33;;;;;;;10.43;9.32;;;;;;;12.67;100.00;95962.84;5010887;28;24436;-75
2021/09/20 06:21:59;;;;;;;13.65;11.32;;;;;;;12.75;100.00;95958.78;5011069;28;24440;-75
2021/09/20 06:24:26;;;;;;;13.20;11.50;;;;;;;12.76;100.00;95957.88;5010898;28;24958;-75
2021/09/20 06:26:52;;;;;;;14.50;11.70;;;;;;;12.75;100.00;95953.59;5010592;28;24945;-75
2021/09/20 06:29:19;;;;;;;15.02;10.93;;;;;;;12.73;100.00;95957.25;5011088;28;24510;-75
2021/09/20 06:31:47;;;;;;;13.75;11.27;;;;;;;12.60;100.00;95960.66;5011198;28;24436;-76
2021/09/20 06:34:13;;;;;;;13.75;12.23;;;;;;;12.54;100.00;95955.91;5010795;28;24423;-73
2021/09/20 06:36:40;;;;;;;13.43;11.50;;;;;;;12.52;100.00;95957.75;5010661;28;24482;-76
2021/09/20 06:39:07;;;;;;;12.38;11.18;;;;;;;12.45;100.00;95955.69;5009893;28;24423;-75
2021/09/20 06:41:34;;;;;;;14.40;11.55;;;;;;;12.53;100.00;95962.03;5010657;28;24498;-76
2021/09/20 06:44:02;;;;;;;15.87;13.03;;;;;;;12.38;100.00;95957.00;5010492;28;24440;-75
2021/09/20 06:46:30;;;;;;;13.63;11.85;;;;;;;12.49;100.00;95957.13;5010590;28;24420;-75
2021/09/20 06:48:58;;;;;;;28.63;12.90;;;;;;;12.55;100.00;95957.56;5013049;28;24448;-75
2021/09/20 06:51:24;;;;;;;24.23;13.70;;;;;;;12.51;100.00;95956.09;5014962;28;24423;-75
2021/09/20 06:53:51;;;;;;;25.20;13.40;;;;;;;12.48;100.00;95958.91;5014432;28;25104;-75
2021/09/20 06:56:17;;;;;;;21.65;12.30;;;;;;;12.63;100.00;95958.81;5013905;28;24981;-75
2021/09/20 06:58:44;;;;;;;22.95;12.55;;;;;;;12.70;100.00;95960.06;5013411;28;24966;-76
2021/09/20 07:01:10;;;;;;;23.27;14.18;;;;;;;12.73;100.00;95955.47;5014610;28;24805;-74
2021/09/20 07:03:37;;;;;;;38.55;15.50;;;;;;;12.79;100.00;95956.81;5015018;28;24435;-75
2021/09/20 07:06:06;;;;;;;24.08;11.68;;;;;;;12.87;100.00;95953.69;5014544;28;24420;-73
2021/09/20 07:08:32;;;;;;;26.45;11.38;;;;;;;12.98;100.00;95948.59;5014366;28;24865;-72
2021/09/20 07:10:59;;;;;;;20.42;12.13;;;;;;;13.05;100.00;95952.41;5014298;28;24969;-73
2021/09/20 07:13:26;;;;;;;18.65;10.35;;;;;;;13.21;100.00;95947.81;5014249;28;24432;-72
2021/09/20 07:15:53;;;;;;;17.15;10.57;;;;;;;13.30;100.00;95947.19;5014249;28;24450;-71
2021/09/20 07:18:20;;;;;;;15.75;11.18;;;;;;;13.21;100.00;95955.63;5014274;28;24428;-73
2021/09/20 07:20:46;;;;;;;14.37;11.00;;;;;;;13.23;100.00;95952.91;5014772;28;24470;-72
2021/09/20 07:23:14;;;;;;;18.20;11.65;;;;;;;13.45;100.00;95955.66;5014367;28;24425;-72
2021/09/20 07:25:41;;;;;;;15.43;10.20;;;;;;;13.85;100.00;95952.81;5014189;28;24416;-73
2021/09/20 07:28:07;;;;;;;14.73;10.45;;;;;;;13.79;100.00;95953.25;5014323;28;24626;-72
2021/09/20 07:30:34;;;;;;;12.97;9.63;;;;;;;13.66;100.00;95962.91;5014456;28;24448;-74
2021/09/20 07:33:00;;;;;;;12.48;10.00;;;;;;;13.79;100.00;95963.66;5014789;28;24440;-75
2021/09/20 07:35:27;;;;;;;13.20;10.27;;;;;;;14.16;100.00;95959.19;5014176;28;25132;-73
2021/09/20 07:37:56;;;;;;;12.57;9.35;;;;;;;14.34;100.00;95964.81;5014731;28;24439;-72
2021/09/20 07:40:27;;;;;;;12.88;11.32;;;;;;;14.52;100.00;95966.06;5014368;28;24409;-73
2021/09/20 07:42:55;;;;;;;11.77;10.60;;;;;;;14.07;100.00;95962.47;5013942;28;24435;-73
2021/09/20 07:45:22;;;;;;;13.77;9.98;;;;;;;14.02;100.00;95967.22;5013955;28;24420;-75
2021/09/20 07:47:49;;;;;;;11.70;10.50;;;;;;;14.17;100.00;95968.69;5015328;28;24443;-74
2021/09/20 07:50:16;;;;;;;10.57;9.57;;;;;;;14.26;100.00;95965.38;5015926;28;24455;-74
2021/09/20 07:52:44;;;;;;;12.07;9.55;;;;;;;14.31;100.00;95966.81;5014311;28;24779;-74
2021/09/20 07:55:11;;;;;;;10.45;9.45;;;;;;;14.32;100.00;95964.09;5013515;28;24428;-75
2021/09/20 07:57:39;;;;;;;10.73;8.73;;;;;;;14.43;100.00;95965.91;5013695;28;24567;-74
2021/09/20 08:00:09;;;;;;;9.25;8.38;;;;;;;14.28;100.00;95975.69;5013295;28;24420;-74
2021/09/20 08:02:35;;;;;;;9.88;8.73;;;;;;;14.36;100.00;95975.13;5013706;28;25171;-74
2021/09/20 08:05:02;;;;;;;10.90;7.90;;;;;;;14.22;100.00;95973.53;5013824;28;24431;-74
2021/09/20 08:07:28;;;;;;;9.63;8.80;;;;;;;14.51;100.00;95982.66;5014151;28;24474;-75
2021/09/20 08:09:55;;;;;;;9.30;8.40;;;;;;;14.38;100.00;95984.47;5014215;28;24440;-75
2021/09/20 08:12:21;;;;;;;9.88;8.88;;;;;;;14.01;100.00;95981.97;5009761;28;24439;-73
2021/09/20 08:14:49;;;;;;;10.00;8.85;;;;;;;14.06;100.00;95986.88;5013047;28;24436;-75
2021/09/20 08:17:16;;;;;;;9.55;8.65;;;;;;;14.04;100.00;95991.34;5013303;28;24433;-75
2021/09/20 08:19:42;;;;;;;7.85;7.10;;;;;;;13.97;100.00;95987.53;5009338;28;24463;-76
2021/09/20 08:22:10;;;;;;;8.57;7.75;;;;;;;13.97;100.00;95990.13;5011177;28;24980;-75
2021/09/20 08:24:36;;;;;;;10.50;8.10;;;;;;;14.04;100.00;95993.94;5013007;28;24437;-75
2021/09/20 08:27:03;;;;;;;8.32;7.63;;;;;;;14.17;100.00;95989.53;5013276;28;24478;-74
2021/09/20 08:29:29;;;;;;;7.45;6.78;;;;;;;14.24;100.00;95990.72;5013799;28;24450;-75
2021/09/20 08:31:57;;;;;;;7.90;7.20;;;;;;;14.41;100.00;95997.28;5012898;28;24416;-75
2021/09/20 08:34:23;;;;;;;7.50;6.80;;;;;;;14.60;100.00;95993.34;5013376;28;24440;-76
2021/09/20 08:36:50;;;;;;;7.43;6.70;;;;;;;14.60;100.00;95991.56;5013387;28;24429;-76
2021/09/20 08:39:16;;;;;;;9.15;7.15;;;;;;;14.69;100.00;96001.31;5013177;28;24479;-76
2021/09/20 08:41:43;;;;;;;7.57;6.88;;;;;;;15.16;100.00;96002.03;5013344;28;24480;-75
2021/09/20 08:44:10;;;;;;;9.57;7.82;;;;;;;15.18;100.00;96005.38;5012624;28;24504;-75
2021/09/20 08:46:39;;;;;;;9.10;8.20;;;;;;;14.95;100.00;96007.16;5012546;28;24444;-75
2021/09/20 08:49:07;;;;;;;8.73;7.85;;;;;;;14.59;100.00;96013.34;5012875;28;24475;-74
2021/09/20 08:51:34;;;;;;;9.48;8.20;;;;;;;14.43;100.00;96016.25;5012765;28;24474;-74
2021/09/20 08:54:00;;;;;;;9.30;8.40;;;;;;;14.38;100.00;96017.53;5012573;28;25031;-75
2021/09/20 08:56:27;;;;;;;9.10;7.88;;;;;;;14.33;100.00;96019.66;5012274;28;24571;-73
2021/09/20 08:58:53;;;;;;;8.93;8.03;;;;;;;14.57;100.00;96019.63;5041283;22;24557;-76
2021/09/20 09:01:20;;;;;;;9.00;7.65;;;;;;;14.70;100.00;96026.41;5033564;28;24439;-76
2021/09/20 09:03:46;;;;;;;7.35;6.65;;;;;;;14.42;100.00;96022.38;5033626;28;24439;-78
2021/09/20 09:06:28;;;;;;;8.55;7.65;;;;;;;14.24;100.00;96024.59;5031707;28;24443;-76
2021/09/20 09:08:55;;;;;;;8.48;7.68;;;;;;;14.24;100.00;96026.38;5017815;28;24984;-76
2021/09/20 09:11:21;;;;;;;7.50;6.70;;;;;;;14.48;100.00;96026.31;5012472;28;25023;-76
2021/09/20 09:13:49;;;;;;;7.53;6.82;;;;;;;14.46;100.00;96021.25;5010424;28;25004;-76
2021/09/20 09:16:17;;;;;;;7.00;6.28;;;;;;;14.80;100.00;96023.13;5020796;28;24429;-76
2021/09/20 09:19:06;;;;;;;9.13;6.93;;;;;;;15.05;100.00;96029.91;5011914;28;24452;-77
2021/09/20 09:21:35;;;;;;;7.37;6.67;;;;;;;15.03;100.00;96027.41;4994714;28;24440;-77
2021/09/20 09:24:04;;;;;;;11.23;6.88;;;;;;;14.88;100.00;96020.78;4997180;28;24490;-76
2021/09/20 09:26:31;;;;;;;7.40;6.00;;;;;;;14.82;100.00;96037.69;5011749;28;24436;-76
2021/09/20 09:29:08;;;;;;;6.80;6.20;;;;;;;14.98;100.00;96037.34;5006656;28;24440;-76
2021/09/20 09:31:36;;;;;;;5.88;5.38;;;;;;;15.14;100.00;96037.88;5010307;28;24452;-76
2021/09/20 09:34:15;;;;;;;7.65;6.85;;;;;;;15.16;100.00;96040.34;5022932;28;24981;-76
2021/09/20 09:36:43;;;;;;;6.40;5.80;;;;;;;15.24;100.00;96041.44;5011853;28;24440;-76
2021/09/20 09:39:10;;;;;;;7.43;6.68;;;;;;;15.49;100.00;96039.50;5011571;28;24853;-76
2021/09/20 09:41:39;;;;;;;8.35;6.85;;;;;;;15.30;100.00;96034.06;5023097;28;24980;-76
2021/09/20 09:44:07;;;;;;;7.95;7.07;;;;;;;15.01;100.00;96031.91;5017812;28;24451;-76
2021/09/20 09:46:38;;;;;;;7.55;6.85;;;;;;;14.85;100.00;96036.63;5012682;28;24425;-77
2021/09/20 09:49:12;;;;;;;7.13;6.43;;;;;;;14.61;100.00;96037.53;5015066;28;25205;-77
2021/09/20 09:51:58;;;;;;;7.82;7.03;;;;;;;14.79;100.00;96037.91;5014025;28;24432;-76
2021/09/20 09:54:29;;;;;;;8.27;6.35;;;;;;;14.79;100.00;96043.13;4994613;28;24425;-77
2021/09/20 09:57:17;;;;;;;7.60;6.90;;;;;;;15.28;100.00;96042.03;4993666;28;24790;-76
2021/09/20 09:59:53;;;;;;;7.68;6.50;;;;;;;15.22;100.00;96034.66;4993215;28;24437;-76
2021/09/20 10:02:25;;;;;;;7.03;6.18;;;;;;;15.08;99.50;96034.88;4992355;28;21269;-77
2021/09/20 10:04:53;;;;;;;6.53;5.93;;;;;;;15.18;100.00;96034.06;4992605;28;24421;-76
2021/09/20 10:07:29;;;;;;;6.97;6.28;;;;;;;15.30;100.00;96026.25;4992658;28;24440;-75
2021/09/20 10:09:56;;;;;;;6.35;5.75;;;;;;;15.38;99.79;96036.91;4992104;28;24421;-76
2021/09/20 10:12:25;;;;;;;6.75;5.53;;;;;;;15.01;98.34;96037.94;4992531;28;24901;-75
2021/09/20 10:14:53;;;;;;;6.10;5.50;;;;;;;15.20;100.00;96034.78;5011629;28;24515;-76
2021/09/20 10:17:22;;;;;;;6.05;5.53;;;;;;;15.38;98.28;96037.72;5012107;28;24475;-75
2021/09/20 10:19:48;;;;;;;5.75;5.15;;;;;;;15.45;95.51;96031.09;5012813;28;25015;-75
2021/09/20 10:22:16;;;;;;;9.50;8.25;;;;;;;15.71;99.88;96036.09;5011057;28;24440;-75
2021/09/20 10:24:47;;;;;;;12.30;8.77;;;;;;;15.91;96.90;96035.34;5011520;28;24444;-76
2021/09/20 10:27:15;;;;;;;11.35;9.35;;;;;;;15.79;97.13;96033.69;5011377;28;24962;-77
2021/09/20 10:29:46;;;;;;;11.52;9.38;;;;;;;15.67;100.00;96039.88;5012413;28;24487;-77
2021/09/20 10:32:13;;;;;;;11.13;8.90;;;;;;;15.63;97.51;96034.03;5012381;28;20786;-77
2021/09/20 10:34:40;;;;;;;12.80;9.07;;;;;;;15.58;99.91;96032.75;5005873;28;24449;-77
2021/09/20 10:37:10;;;;;;;9.10;8.13;;;;;;;15.49;98.58;96031.69;5006373;28;24420;-77
2021/09/20 10:40:00;;;;;;;12.82;8.93;;;;;;;15.59;97.01;96039.63;5012972;28;24433;-76
2021/09/20 10:43:02;;;;;;;11.70;9.55;;;;;;;15.59;97.59;96034.41;5012340;28;24482;-77
2021/09/20 10:45:54;;;;;;;9.70;8.80;;;;;;;15.34;100.00;96040.72;5010834;28;24420;-76
2021/09/20 10:48:46;;;;;;;10.27;8.70;;;;;;;15.21;100.00;96033.84;5010996;28;24814;-77
2021/09/20 10:51:22;;;;;;;11.15;8.32;;;;;;;15.21;100.00;96043.44;5010713;28;25060;-77
2021/09/20 10:54:09;;;;;;;9.38;8.38;;;;;;;15.17;100.00;96042.03;5011204;28;24416;-77
2021/09/20 10:56:39;;;;;;;9.93;8.93;;;;;;;15.22;99.21;96037.28;5011499;28;24435;-76
2021/09/20 10:59:18;;;;;;;12.65;8.60;;;;;;;15.23;100.00;96039.75;5012458;28;24444;-77
2021/09/20 11:01:55;;;;;;;11.80;9.30;;;;;;;15.58;98.48;96041.41;5012048;28;25006;-76
2021/09/20 11:04:27;;;;;;;11.63;9.55;;;;;;;15.69;94.57;96044.03;5012392;28;24456;-77
2021/09/20 11:07:10;;;;;;;9.32;8.48;;;;;;;15.71;97.83;96047.34;5011429;28;24423;-76
2021/09/20 11:09:49;;;;;;;11.47;9.07;;;;;;;15.55;95.83;96046.88;5010895;28;24433;-75
2021/09/20 11:12:21;;;;;;;9.25;8.35;;;;;;;15.36;97.18;96039.66;5010821;28;24520;-75
2021/09/20 11:14:50;;;;;;;10.65;9.23;;;;;;;15.49;94.07;96044.72;5012992;28;24524;-78
2021/09/20 11:17:29;;;;;;;9.52;8.52;;;;;;;15.39;95.49;96041.19;5014295;28;24428;-78
2021/09/20 11:19:58;;;;;;;10.68;9.13;;;;;;;15.37;97.37;96043.91;5012833;28;24427;-77
2021/09/20 11:22:28;;;;;;;11.13;9.43;;;;;;;15.29;97.02;96048.91;5011364;28;24416;-77
2021/09/20 11:24:56;;;;;;;10.82;9.82;;;;;;;15.53;95.37;96047.94;5013306;28;24452;-77